This is the latest recevied weather packets stored in our database for station/object VK5TRM-13. If no packets are shown the sender has not sent any weather packets the latest 10 day(s).
| Time | Temp. | Humidity | Pressure | Rain* | Wind** | Luminosity | Snow |
|---|---|---|---|---|---|---|---|
| 1787619002 | 15° C | 90% | 1012.9 hPa | 0 mm | - | - | - |
| 1787618102 | 15° C | 90% | 1012.9 hPa | 0 mm | - | - | - |
| 1787617203 | 14.44° C | 92% | 1012.5 hPa | 0 mm | - | - | - |
| 1787616302 | 14.44° C | 92% | 1012.5 hPa | 0 mm | - | - | - |
| 1787615402 | 13.89° C | 96% | 1012.2 hPa | 0 mm | - | - | - |
| 1787614502 | 13.89° C | 96% | 1012.2 hPa | 0 mm | - | - | - |
| 1787613602 | 13.33° C | 97% | 1012 hPa | 0 mm | - | - | - |
| 1787612702 | 13.33° C | 97% | 1012 hPa | 0 mm | - | - | - |
| 1787611803 | 12.78° C | 97% | 1011.4 hPa | 0 mm | - | - | - |
| 1787610902 | 12.78° C | 97% | 1011.4 hPa | 0 mm | - | - | - |
| 1787610002 | 11.67° C | 97% | 1010.8 hPa | 0 mm | - | - | - |
| 1787609102 | 11.67° C | 97% | 1010.8 hPa | 0 mm | - | - | - |
| 1787608202 | 10.56° C | 97% | 1010.3 hPa | 0 mm | - | - | - |
| 1787607302 | 10.56° C | 97% | 1010.3 hPa | 0 mm | - | - | - |
| 1787606402 | 10° C | 96% | 1009.9 hPa | 0 mm | - | - | - |
| 1787605502 | 10° C | 96% | 1009.9 hPa | 0 mm | - | - | - |
| 1787604602 | 10° C | 96% | 1009.6 hPa | 0 mm | - | - | - |
| 1787603702 | 10° C | 96% | 1009.6 hPa | 0 mm | - | - | - |
| 1787602802 | 11.11° C | 96% | 1009.4 hPa | 0 mm | - | - | - |
| 1787601902 | 11.11° C | 96% | 1009.4 hPa | 0 mm | - | - | - |
| 1787601002 | 12.22° C | 96% | 1009.3 hPa | 0 mm | - | - | - |
| 1787600103 | 12.22° C | 96% | 1009.3 hPa | 0 mm | - | - | - |
| 1787599202 | 12.22° C | 95% | 1009.2 hPa | 0 mm | - | - | - |
| 1787598303 | 12.22° C | 95% | 1009.2 hPa | 0 mm | - | - | - |
| 1787597403 | 12.78° C | 95% | 1009.1 hPa | 0 mm | - | - | - |
* Rain latest hour (hover to see other rain measurements)
** Current wind speed in m/s (hover to see current wind gust speed)